If you wish to contribute or participate in the discussions about articles you are invited to join SKYbrary as a registered user

 Actions

Santorini International Airport

From SKYbrary Wiki

LGSR
Airport
ICAO: LGSR – IATA: JTR
Summary
Name Santorini International Airport
Region Europe
Territory Greece GR.gif
Location Kamari, Cyclades
Serving Thira/Santorini
Elevation 38.71 m <br />127 ft <br />127 ft38.71 m <br />
Coordinates 36° 24' 6.01" N, 25° 28' 41.99" E
Runways
Designator Length Width Surface ROPS
16L/34R 2125 m6,971.785 ft <br /> 30 m98.425 ft <br /> ASP yes/yes
16R/34L 0 m0 ft <br /> 0 m0 ft <br /> UNK yes/yes


METAR
Observation LGSR 281650Z 34015KT CAVOK 29/18 Q1010
Station Santorini Island
Date/Time 28 July 2021 16:50:00
Wind direction 340°
Wind speed 15 kts
Lowest cloud amount clouds and visibility OK
Temperature 29°C
Dew point 18°C
Humidity 51%
QNH 1010 hPa
Weather condition n/a

CFIT
Tag(s) Runway Visual Perspective
WX
Tag(s) Low Level Turbulence

International airport on the island of Santorini, Greece.

Climatology

Mediterranean climate (Köppen climate classification Csa) - Hot, dry summer and a mild wet winter.

Maps

Terrain

Loading map...

Airport Layout

Loading map...


Accidents & Serious Incidents at or in vicinity of LGSR

None on SKYbrary